createdAt,value
2023-05-02T00:02:27.442Z,13.85
2023-05-02T00:07:28.401Z,11.07
2023-05-02T00:12:29.246Z,16.45
2023-05-02T00:17:30.269Z,20.50
2023-05-02T00:22:31.483Z,18.58
2023-05-02T00:27:32.543Z,17.27
2023-05-02T00:32:33.438Z,19.67
2023-05-02T00:37:34.497Z,21.17
2023-05-02T00:42:35.644Z,20.70
2023-05-02T00:47:37.038Z,22.85
2023-05-02T00:52:37.943Z,27.85
2023-05-02T00:57:38.773Z,24.48
2023-05-02T01:02:50.711Z,32.03
2023-05-02T01:08:18.439Z,33.97
2023-05-02T01:13:27.702Z,33.50
2023-05-02T01:18:32.776Z,34.25
2023-05-02T01:23:52.409Z,27.87
2023-05-02T01:29:01.637Z,27.98
2023-05-02T01:34:04.895Z,25.27
2023-05-02T01:44:10.202Z,24.60
2023-05-02T01:49:11.124Z,28.93
2023-05-02T01:54:13.458Z,26.12
2023-05-02T01:59:18.845Z,29.05
2023-05-02T02:04:21.293Z,36.42
2023-05-02T02:09:22.106Z,29.47
2023-05-02T02:14:27.258Z,31.87
2023-05-02T02:19:29.812Z,31.48
2023-05-02T02:24:32.089Z,27.00
2023-05-02T02:29:32.909Z,29.10
2023-05-02T02:34:33.718Z,27.13
2023-05-02T02:40:12.838Z,47.33
2023-05-02T02:45:37.613Z,66.25
2023-05-02T02:51:00.286Z,66.78
2023-05-02T02:56:15.170Z,71.18
2023-05-02T03:01:21.237Z,76.07
2023-05-02T03:06:23.642Z,81.15
2023-05-02T03:11:27.662Z,91.00
2023-05-02T03:16:39.936Z,90.55
2023-05-02T03:21:42.670Z,95.97
2023-05-02T03:26:49.695Z,95.53
2023-05-02T03:31:51.797Z,95.07
2023-05-02T03:36:53.961Z,98.53
2023-05-02T03:41:55.094Z,107.22
2023-05-02T03:46:56.335Z,111.60
2023-05-02T03:51:58.788Z,101.60
2023-05-02T03:57:01.149Z,115.37
2023-05-02T04:07:17.564Z,113.25
2023-05-02T04:12:19.715Z,107.63
2023-05-02T04:17:23.498Z,110.95
2023-05-02T04:22:25.093Z,107.45
2023-05-02T04:27:35.938Z,97.70
2023-05-02T04:32:37.216Z,109.57
2023-05-02T04:37:38.772Z,112.05
2023-05-02T04:42:40.363Z,102.80
2023-05-02T04:47:48.715Z,107.32
2023-05-02T04:52:50.004Z,89.55
2023-05-02T04:57:51.458Z,96.93
2023-05-02T05:02:52.854Z,95.53
2023-05-02T05:07:54.263Z,93.10
2023-05-02T05:12:57.749Z,92.47
2023-05-02T05:17:58.990Z,89.07
2023-05-02T05:23:00.125Z,82.22
2023-05-02T05:28:02.217Z,86.93
2023-05-02T05:33:04.603Z,87.23
2023-05-02T05:38:06.295Z,80.80
2023-05-02T05:43:10.240Z,77.20
2023-05-02T05:48:12.961Z,81.80
2023-05-02T05:53:18.685Z,76.40
2023-05-02T05:58:21.975Z,73.87
2023-05-02T06:03:24.458Z,75.50
2023-05-02T06:08:25.450Z,70.10
2023-05-02T06:13:27.889Z,64.55
2023-05-02T06:18:29.567Z,64.40
2023-05-02T06:23:30.747Z,54.15
2023-05-02T06:28:31.660Z,49.00
2023-05-02T06:33:33.663Z,47.42
2023-05-02T06:38:34.401Z,41.92
2023-05-02T06:43:35.186Z,37.55
2023-05-02T06:48:36.060Z,28.70
2023-05-02T06:53:36.901Z,27.80
2023-05-02T06:58:37.712Z,29.58
2023-05-02T07:09:02.991Z,33.17
2023-05-02T07:14:04.276Z,34.35
2023-05-02T07:19:06.019Z,40.28
2023-05-02T07:24:06.794Z,42.08
2023-05-02T07:29:09.064Z,39.60
2023-05-02T07:34:09.825Z,37.13
2023-05-02T07:39:10.667Z,34.45
2023-05-02T07:44:11.473Z,34.95
2023-05-02T07:49:13.171Z,33.72
2023-05-02T07:54:18.496Z,36.05
2023-05-02T07:59:19.340Z,34.78
2023-05-02T08:04:20.208Z,38.50
2023-05-02T08:09:21.212Z,30.12
2023-05-02T08:14:22.089Z,35.00
2023-05-02T08:19:23.267Z,35.08
2023-05-02T08:24:24.137Z,35.38
2023-05-02T08:29:24.971Z,32.78
2023-05-02T08:34:25.953Z,34.70
2023-05-02T08:39:26.804Z,31.62
2023-05-02T08:44:27.735Z,25.75
2023-05-02T08:49:31.981Z,26.35
2023-05-02T08:54:33.531Z,28.87
2023-05-02T08:59:34.587Z,26.98
2023-05-02T09:04:40.484Z,23.52
2023-05-02T09:09:41.405Z,23.12
2023-05-02T09:14:44.526Z,20.50
2023-05-02T09:19:45.464Z,22.50
2023-05-02T09:24:54.401Z,16.73
2023-05-02T09:30:37.483Z,18.95
2023-05-02T09:35:54.031Z,27.67
2023-05-02T09:40:58.311Z,27.85
2023-05-02T09:46:09.658Z,32.05
2023-05-02T09:51:17.123Z,29.10
2023-05-02T09:56:18.068Z,33.67
2023-05-02T10:01:19.650Z,27.02
2023-05-02T10:06:20.821Z,20.25
2023-05-02T10:11:22.208Z,16.67
2023-05-02T10:16:29.298Z,17.62
2023-05-02T10:21:31.664Z,19.40
2023-05-02T10:26:34.147Z,20.80
2023-05-02T10:31:38.860Z,15.05
2023-05-02T10:36:39.885Z,12.77
2023-05-02T10:41:42.247Z,12.70
2023-05-02T10:46:44.108Z,13.15
2023-05-02T10:51:45.141Z,13.13
2023-05-02T10:57:06.846Z,11.35
2023-05-02T11:05:58.726Z,15.90
2023-05-02T11:11:38.147Z,13.75
2023-05-02T11:23:27.392Z,12.45
2023-05-02T11:28:42.963Z,19.95
2023-05-02T11:33:55.424Z,16.33
2023-05-02T11:38:56.296Z,11.77
2023-05-02T11:44:03.283Z,9.05
2023-05-02T11:49:06.888Z,7.93
2023-05-02T11:54:17.843Z,6.12
2023-05-02T11:59:18.749Z,4.47
2023-05-02T12:04:23.136Z,5.72
2023-05-02T12:09:24.082Z,6.35
2023-05-02T12:14:29.324Z,11.48
2023-05-02T12:19:30.328Z,10.35
2023-05-02T12:24:31.257Z,13.50
2023-05-02T12:29:42.690Z,14.80
2023-05-02T12:34:43.543Z,10.27
2023-05-02T12:39:44.344Z,13.13
2023-05-02T12:44:46.646Z,11.60
2023-05-02T12:50:06.012Z,11.17
2023-05-02T12:55:23.743Z,7.18
2023-05-02T13:00:25.096Z,13.23
2023-05-02T13:05:26.057Z,10.45
2023-05-02T13:10:27.410Z,9.75
2023-05-02T13:15:28.331Z,11.80
2023-05-02T13:20:29.146Z,7.90
2023-05-02T13:25:30.434Z,7.43
2023-05-02T13:30:31.582Z,4.90
2023-05-02T13:35:34.039Z,4.25
2023-05-02T13:40:36.123Z,6.35
2023-05-02T13:45:36.909Z,4.95
2023-05-02T13:50:38.256Z,6.65
2023-05-02T13:55:39.018Z,8.45
2023-05-02T14:00:39.877Z,9.40
2023-05-02T14:05:42.936Z,6.80
2023-05-02T14:15:44.813Z,10.30
2023-05-02T14:20:46.182Z,10.90
2023-05-02T14:25:46.990Z,7.78
2023-05-02T14:30:48.513Z,8.95
2023-05-02T14:35:49.601Z,8.55
2023-05-02T14:40:50.626Z,8.07
2023-05-02T14:45:51.382Z,8.52
2023-05-02T14:50:53.066Z,7.05
2023-05-02T14:55:53.818Z,9.20
2023-05-02T15:00:54.947Z,5.97
2023-05-02T15:05:55.834Z,14.18
2023-05-02T15:10:57.852Z,9.40
2023-05-02T15:15:58.811Z,7.10
2023-05-02T15:20:59.802Z,11.75
2023-05-02T15:26:00.570Z,10.70
2023-05-02T15:31:01.544Z,8.07
2023-05-02T15:36:02.395Z,10.27
2023-05-02T15:41:03.364Z,10.48
2023-05-02T15:46:04.292Z,10.30
2023-05-02T15:51:05.750Z,9.98
2023-05-02T15:56:13.419Z,10.13
2023-05-02T16:01:14.399Z,11.30
2023-05-02T16:06:16.677Z,13.98
2023-05-02T16:11:17.791Z,14.40
2023-05-02T16:16:18.789Z,11.20
2023-05-02T16:21:19.833Z,10.38
2023-05-02T16:26:20.698Z,11.70
2023-05-02T16:31:22.336Z,12.35
2023-05-02T16:36:24.111Z,17.08
2023-05-02T16:41:24.966Z,12.13
2023-05-02T16:46:26.490Z,14.38
2023-05-02T16:51:27.414Z,10.75
2023-05-02T16:56:28.567Z,17.25
2023-05-02T17:01:29.667Z,12.37
2023-05-02T17:06:31.388Z,14.05
2023-05-02T17:11:32.273Z,12.25
2023-05-02T17:16:33.093Z,12.75
2023-05-02T17:21:34.957Z,9.13
2023-05-02T17:26:35.792Z,11.77
2023-05-02T17:31:37.239Z,9.93
2023-05-02T17:36:41.420Z,11.15
2023-05-02T17:41:42.141Z,11.43
2023-05-02T17:46:43.437Z,11.93
2023-05-02T17:51:44.411Z,8.15
2023-05-02T17:56:45.496Z,15.45
2023-05-02T18:01:46.673Z,14.40
2023-05-02T18:06:47.664Z,9.23
2023-05-02T18:11:48.582Z,15.32
2023-05-02T18:16:49.412Z,17.00
2023-05-02T18:21:50.595Z,17.00
2023-05-02T18:26:51.894Z,21.65
2023-05-02T18:31:53.429Z,15.13
2023-05-02T18:36:54.221Z,11.95
2023-05-02T18:41:55.022Z,18.37
2023-05-02T18:46:57.074Z,11.88
2023-05-02T18:51:58.046Z,18.80
2023-05-02T18:56:58.803Z,11.05
2023-05-02T19:02:00.285Z,15.48
2023-05-02T19:07:01.121Z,19.37
2023-05-02T19:12:01.933Z,15.35
2023-05-02T19:17:04.938Z,16.42
2023-05-02T19:22:05.850Z,14.75
2023-05-02T19:27:09.637Z,16.30
2023-05-02T19:32:10.488Z,14.48
2023-05-02T19:37:11.729Z,16.20
2023-05-02T19:42:12.503Z,13.90
2023-05-02T19:47:13.747Z,14.23
2023-05-02T19:52:14.614Z,16.20
2023-05-02T19:57:17.073Z,15.38
2023-05-02T20:02:17.927Z,18.60
2023-05-02T20:07:18.777Z,19.75
2023-05-02T20:12:19.545Z,16.02
2023-05-02T20:17:20.441Z,18.08
2023-05-02T20:22:21.309Z,18.20
2023-05-02T20:27:22.219Z,14.40
2023-05-02T20:32:23.359Z,15.00
2023-05-02T20:37:24.886Z,13.70
2023-05-02T20:42:26.043Z,19.12
2023-05-02T20:47:28.430Z,14.93
2023-05-02T20:52:29.224Z,15.37
2023-05-02T20:57:30.228Z,18.60
2023-05-02T21:02:31.363Z,22.42
2023-05-02T21:07:32.283Z,22.85
2023-05-02T21:12:33.041Z,20.12
2023-05-02T21:17:33.974Z,20.27
2023-05-02T21:22:34.865Z,17.25
2023-05-02T21:27:35.816Z,22.83
2023-05-02T21:32:36.796Z,22.33
2023-05-02T21:37:37.782Z,15.10
2023-05-02T21:42:38.576Z,20.70
2023-05-02T21:47:39.438Z,15.57
2023-05-02T21:52:40.254Z,14.38
2023-05-02T21:57:41.051Z,11.40
2023-05-02T22:02:42.050Z,15.27
2023-05-02T22:07:42.936Z,12.50
2023-05-02T22:12:43.798Z,14.30
2023-05-02T22:17:45.396Z,12.63
2023-05-02T22:22:46.241Z,11.32
2023-05-02T22:27:47.033Z,12.45
2023-05-02T22:32:48.038Z,16.55
2023-05-02T22:37:49.180Z,15.52
2023-05-02T22:42:49.958Z,19.33
2023-05-02T22:47:51.461Z,13.43
2023-05-02T22:52:56.103Z,11.80
2023-05-02T22:57:57.569Z,11.43
2023-05-02T23:02:59.118Z,12.50
2023-05-02T23:07:59.981Z,13.43
2023-05-02T23:13:00.826Z,10.13
2023-05-02T23:18:01.647Z,9.70
2023-05-02T23:23:02.890Z,10.43
2023-05-02T23:28:03.994Z,11.18
2023-05-02T23:33:05.208Z,10.10
2023-05-02T23:38:07.140Z,9.20
2023-05-02T23:43:08.207Z,11.77
2023-05-02T23:48:09.033Z,13.50
2023-05-02T23:53:09.936Z,9.85
2023-05-02T23:58:10.745Z,11.12
